18:46
Airports
History
Links
Donate
Help keep this website running!
PayPal
Bitcoin
This page is community maintained. The information is intended for PC simulator navigation or reference.
Always use approved charts for navigation.
OI56
Atwood Lodge
Atwood Lodge (OI56)
Sherrodsville, Ohio, United States (44675)
4
Lat/Lng:40° 31' 56.23" N / 81° 14' 17.38" W
40.532286 / -81.238162
Elevation:1108'ft / 338mMSL
ID / ICAO:OI56
Runways:1
Longest:12-30
Grass 966m / 3,168ft
Nearby Weather17:53 GMT 2017-09-22
Nearby weather at KPHD, Harry Clever Field located 10.5 nautical miles from OI56
Altimeter: 30.11
Visibility: 10.0 statute miles
Wind: 3 knots (from VRB°)
Temp: 32°c / 90°f
Humidity: 43.4%

METAR: KPHD 221753Z AUTO VRB03KT 10SM CLR 32/18 A3011 RMK AO2 SLP190 T03170178 10317 20167 58012

(Powered by phpweather)
Nearby VORs <50NM
Nearby NDBs
Runway 12 / 30
Dimensions:965.6 x 30.5m 3168' x 100'ft
Surface:Grass
Runway 12 [A]Runway 30 [B]
Heading:112°TH 292°TH
Lat:
Lng:
40° 32' 2.38"N
81° 14' 36.46"W
40° 31' 50.08"N
81° 13' 58.31"W
User Notes and Comments
40° 31' 56.23" N / 81° 14' 17.38" W
Distance To
Airport ID:
Nearby Airports
4 Schneider-Mohawk 8.1 NM
65D N
(U) Carroll County-tolson 8.6 NM
KTSO ENE 76°
(U) Magnolia 9.4 NM
OH04 NNW 339°
(R) Hibbetts 9.8 NM
OI11 NE 42°
(U) Harry Clever Field 10.5 NM
KPHD ( WX ) WSW 245°
(R) Fox 11.2 NM
29OH NNW 342°
4 Parsons 12.0 NM
5D6 NE 48°
VFR Chart
Flight Planning at SkyVector.com